DAAGDABT

Guest
Details From DAAG - Alger Houari Boumediene
To DABT - BATNA
Flight Number -
Tags generated
Created
Modified
Stats Distance 160 nm / 297 km
Max Altitude 13,800 ft / 4,206 m
Waypoints 3
Social Downloads 1
Likes 0
Share VATSIM

Download

Looking for another format? Having issues loading an existing format? Contact us
Advertisement - Login to hide

Notes

Basic altitude profile: - Ascent Rate: 2500ft/min - Ascent Speed: 250kts - Cruise Altitude: 35000ft - Cruise Speed: 420kts - Descent Rate: 1500ft/min - Descent Speed: 250kts Options: - Use NATs: yes - Use PACOTS: yes - Use low airways: yes - Use high airways: yes

Route

DAAG TAGRO DABT

ID Type Via Altitude Latitude Longitude Leg Dist Tot Dist Heading (true) Name
O DAAG APT - 0 ft / 0 m 36.69752˚ 3.21308˚ - 0 nm - Alger Houari Boumediene
TAGRO FIX - 13,800 ft / 4,206 m 36.21611˚ 5.00000˚ 91 nm 91 nm 108° / 109° -
O DABT APT - 0 ft / 0 m 35.75210˚ 6.30859˚ 69 nm 160 nm 113° / 114° BATNA

Altitude Profile

Advertisement - Login to hide

DAAG

Details ICAO DAAG (ALG)
Name Alger Houari Boumediene
Region Algeria
Timezone Africa/Algiers (UTC+1.0)
Stats Elevation 82 ft / 25 m (AMSL)
Location 36.697521° 3.213079°
Runways 2
Magnetic Variation 1.103° E

METAR

DAAG 260800Z VRB02KT 9999 FEW020 SCT200 22/15 Q1014

Decode

TAF

TAF TAF DAAG 260500Z 2606/2706 VRB02KT 8000 FEW020 PROB30 TEMPO 2606/2608 3000 BR BECMG 2609/2612 35010KT PROB30 TEMPO 2613/2618 17010KT 5000 HZ FEW026TCU BECMG 2618/2621 VRB02KT

Decode

Departure Runways

ID Width Length Bearing (true) Bearing (mag) Surface Threshold Offset Overrun Length
05 197 ft / 60 m 11,459 ft / 3,493 m 52.87° 51.77° Asphalt 0 ft / 0 m 0 ft / 0 m
09 148 ft / 45 m 11,442 ft / 3,487 m 91.75° 90.65° Asphalt 0 ft / 0 m 1,017 ft / 310 m
23 197 ft / 60 m 11,459 ft / 3,493 m 232.89° 231.79° Asphalt 0 ft / 0 m 0 ft / 0 m
27 148 ft / 45 m 11,442 ft / 3,487 m 271.78° 270.68° Asphalt 0 ft / 0 m 0 ft / 0 m

DABT

Details ICAO DABT (BLJ)
Name BATNA
Region Algeria
Timezone Africa/Algiers (UTC+1.0)
Stats Elevation 2,697 ft / 822 m (AMSL)
Location 35.752104° 6.308589°
Runways 1
Magnetic Variation 1.694° E

METAR

DABT 260800Z 35003KT CAVOK 23/13 Q1018

Decode

TAF

TAF DABT 260500Z 2606/2706 28008KT 9999 FEW030 BECMG 2607/2609 17014KT PROB30 TEMPO 2608/2618 16015G25KT FEW023TCU BECMG 2620/2623 23008KT

Decode

Destination Runways

ID Width Length Bearing (true) Bearing (mag) Surface Threshold Offset Overrun Length
05 148 ft / 45 m 9,837 ft / 2,998 m 54.80° 53.11° Asphalt 0 ft / 0 m 350 ft / 107 m
23 148 ft / 45 m 9,837 ft / 2,998 m 234.81° 233.12° Asphalt 0 ft / 0 m 375 ft / 114 m

Popular Alternatives